Elmaton, TX (77440)

2:07 AM CST on December 11, 2016 (GMT -0600)
Barber House | | Change Station

Elev 60 ft 28.97 °N, 96.07 °W | Updated 27 seconds ago

Overcast
Overcast
65.7 °F
Feels Like 65.7 °F
N
6.3
Wind Variable Wind from SE
Gusts 7.0 mph

Today
High -- | Low -- °F
--% Chance of Precip.
Yesterday
High -- | Low -- °F
Precip. -- in
Pressure 30.12 in
Visibility 10.0 miles
Clouds Few 2500 ft
Mostly Cloudy 2900 ft
Overcast 4200 ft
Dew Point 62 °F
Humidity 87%
Rainfall 0.00 in
Snow Depth Not available.
7:08 AM 5:28 PM
Waxing Gibbous, 90% visible
SPECI KPSX 110801Z AUTO 14010KT 10SM FEW025 BKN029 OVC042 18/16 A3012 RMK AO2 T01830161
Pressure 30.12 in
Visibility 10.0 miles
Clouds Few 2500 ft
Mostly Cloudy 2900 ft
Overcast 4200 ft
Dew Point 62 °F
Humidity 87%
Rainfall 0.00 in
Snow Depth Not available.
7:08 AM 5:28 PM
Waxing Gibbous, 90% visible
SPECI KPSX 110801Z AUTO 14010KT 10SM FEW025 BKN029 OVC042 18/16 A3012 RMK AO2 T01830161

10-Day Weather Forecast

Almanac

Astronomy

Dec. 11, 2016 Rise Set
Actual Time
Civil Twilight
Nautical Twilight
Astronomical Twilight
Moon
Length of Visible Light
Length of Day
Tomorrow will be .
, % of the Moon is Illuminated

Today's Extremes

State Highs State Lows

Community

WunderPhotos

Upload Photos

1,956,706 photos uploaded!

WunderBlog® & News

Nearby

Air Quality

  Air Quality AQ Index Pollutant
Not available.

Snow Depth

Station Depth Elevation

Earthquake Activity

City Distance Mag. Time & Date
Minimum magnitude displayed is 2.5.

Coastal Water Temperatures

Place Temperature

Stations

Nearby Weather Stations

Station Location Temp. Windchill Dew Point Humidity Wind Precip. Elev Updated Type
                   

Watches & Warnings

There are currently no watches in effect.